sensor_id;sensor_type;location;lat;lon;timestamp;P1;durP1;ratioP1;P2;durP2;ratioP2
45368;SDS011;51342;55.250;37.668;2022-11-20T00:00:35;13.83;;;7.93;;
45368;SDS011;51342;55.250;37.668;2022-11-20T00:03:07;13.40;;;8.23;;
45368;SDS011;51342;55.250;37.668;2022-11-20T00:05:38;13.07;;;7.47;;
45368;SDS011;51342;55.250;37.668;2022-11-20T00:08:10;12.37;;;7.03;;
45368;SDS011;51342;55.250;37.668;2022-11-20T00:10:41;12.30;;;6.70;;
45368;SDS011;51342;55.250;37.668;2022-11-20T00:13:13;12.33;;;7.23;;
45368;SDS011;51342;55.250;37.668;2022-11-20T00:15:44;11.97;;;6.50;;
45368;SDS011;51342;55.250;37.668;2022-11-20T00:18:16;10.03;;;5.77;;
45368;SDS011;51342;55.250;37.668;2022-11-20T00:20:47;13.30;;;7.20;;
45368;SDS011;51342;55.250;37.668;2022-11-20T00:23:19;10.03;;;5.93;;
45368;SDS011;51342;55.250;37.668;2022-11-20T00:25:50;12.37;;;7.27;;
45368;SDS011;51342;55.250;37.668;2022-11-20T00:28:22;12.57;;;6.60;;
45368;SDS011;51342;55.250;37.668;2022-11-20T00:30:59;12.50;;;6.53;;
45368;SDS011;51342;55.250;37.668;2022-11-20T00:33:31;11.57;;;6.37;;
45368;SDS011;51342;55.250;37.668;2022-11-20T00:36:04;12.17;;;7.17;;
45368;SDS011;51342;55.250;37.668;2022-11-20T00:38:37;11.83;;;7.20;;
45368;SDS011;51342;55.250;37.668;2022-11-20T00:41:09;12.83;;;7.13;;
45368;SDS011;51342;55.250;37.668;2022-11-20T00:43:42;11.47;;;6.50;;
45368;SDS011;51342;55.250;37.668;2022-11-20T00:46:18;12.77;;;6.70;;
45368;SDS011;51342;55.250;37.668;2022-11-20T00:48:52;11.43;;;6.50;;
45368;SDS011;51342;55.250;37.668;2022-11-20T00:51:25;14.40;;;6.97;;
45368;SDS011;51342;55.250;37.668;2022-11-20T00:53:57;11.87;;;7.27;;
45368;SDS011;51342;55.250;37.668;2022-11-20T00:56:30;12.00;;;7.07;;
45368;SDS011;51342;55.250;37.668;2022-11-20T00:59:02;14.37;;;7.63;;
45368;SDS011;51342;55.250;37.668;2022-11-20T01:01:33;16.03;;;7.67;;
45368;SDS011;51342;55.250;37.668;2022-11-20T01:04:05;16.90;;;8.23;;
45368;SDS011;51342;55.250;37.668;2022-11-20T01:06:37;17.30;;;8.57;;
45368;SDS011;51342;55.250;37.668;2022-11-20T01:09:11;17.13;;;9.37;;
45368;SDS011;51342;55.250;37.668;2022-11-20T01:11:44;16.17;;;9.13;;
45368;SDS011;51342;55.250;37.668;2022-11-20T01:14:17;15.80;;;9.57;;
45368;SDS011;51342;55.250;37.668;2022-11-20T01:16:50;16.60;;;9.40;;
45368;SDS011;51342;55.250;37.668;2022-11-20T01:19:22;16.27;;;9.60;;
45368;SDS011;51342;55.250;37.668;2022-11-20T01:21:54;15.93;;;8.60;;
45368;SDS011;51342;55.250;37.668;2022-11-20T01:24:25;17.73;;;9.63;;
45368;SDS011;51342;55.250;37.668;2022-11-20T01:26:57;14.73;;;8.87;;
45368;SDS011;51342;55.250;37.668;2022-11-20T01:29:28;15.20;;;8.77;;
45368;SDS011;51342;55.250;37.668;2022-11-20T01:31:59;15.63;;;9.13;;
45368;SDS011;51342;55.250;37.668;2022-11-20T01:34:31;16.27;;;9.07;;
45368;SDS011;51342;55.250;37.668;2022-11-20T01:37:02;17.07;;;9.30;;
45368;SDS011;51342;55.250;37.668;2022-11-20T01:39:34;17.23;;;8.97;;
45368;SDS011;51342;55.250;37.668;2022-11-20T01:42:05;15.13;;;8.73;;
45368;SDS011;51342;55.250;37.668;2022-11-20T01:44:59;17.33;;;9.73;;
45368;SDS011;51342;55.250;37.668;2022-11-20T01:47:35;16.30;;;8.90;;
45368;SDS011;51342;55.250;37.668;2022-11-20T01:50:15;16.73;;;9.57;;
45368;SDS011;51342;55.250;37.668;2022-11-20T01:52:54;17.83;;;9.57;;
45368;SDS011;51342;55.250;37.668;2022-11-20T01:55:34;20.80;;;10.60;;
45368;SDS011;51342;55.250;37.668;2022-11-20T01:58:09;20.08;;;11.63;;
45368;SDS011;51342;55.250;37.668;2022-11-20T02:00:42;21.57;;;11.60;;
45368;SDS011;51342;55.250;37.668;2022-11-20T02:03:15;20.57;;;11.13;;
45368;SDS011;51342;55.250;37.668;2022-11-20T02:05:51;25.17;;;13.30;;
45368;SDS011;51342;55.250;37.668;2022-11-20T02:08:28;21.50;;;11.87;;
45368;SDS011;51342;55.250;37.668;2022-11-20T02:11:01;20.43;;;11.20;;
45368;SDS011;51342;55.250;37.668;2022-11-20T02:13:33;20.50;;;11.80;;
45368;SDS011;51342;55.250;37.668;2022-11-20T02:16:15;19.53;;;10.70;;
45368;SDS011;51342;55.250;37.668;2022-11-20T02:19:09;22.47;;;12.37;;
45368;SDS011;51342;55.250;37.668;2022-11-20T02:22:06;21.25;;;12.23;;
45368;SDS011;51342;55.250;37.668;2022-11-20T02:24:44;24.63;;;12.30;;
45368;SDS011;51342;55.250;37.668;2022-11-20T02:27:18;22.63;;;13.10;;
45368;SDS011;51342;55.250;37.668;2022-11-20T02:32:32;20.53;;;11.43;;
45368;SDS011;51342;55.250;37.668;2022-11-20T02:35:06;21.77;;;12.30;;
45368;SDS011;51342;55.250;37.668;2022-11-20T02:37:50;22.27;;;12.33;;
45368;SDS011;51342;55.250;37.668;2022-11-20T02:40:25;21.73;;;12.70;;
45368;SDS011;51342;55.250;37.668;2022-11-20T02:42:57;20.73;;;11.67;;
45368;SDS011;51342;55.250;37.668;2022-11-20T02:45:28;22.07;;;11.60;;
45368;SDS011;51342;55.250;37.668;2022-11-20T02:48:00;19.27;;;12.37;;
45368;SDS011;51342;55.250;37.668;2022-11-20T02:50:31;19.87;;;11.10;;
45368;SDS011;51342;55.250;37.668;2022-11-20T02:53:02;22.63;;;12.33;;
45368;SDS011;51342;55.250;37.668;2022-11-20T02:55:34;20.73;;;11.47;;
45368;SDS011;51342;55.250;37.668;2022-11-20T02:58:06;21.90;;;11.43;;
45368;SDS011;51342;55.250;37.668;2022-11-20T03:00:37;18.43;;;10.83;;
45368;SDS011;51342;55.250;37.668;2022-11-20T03:03:08;18.67;;;9.83;;
45368;SDS011;51342;55.250;37.668;2022-11-20T03:05:40;18.20;;;10.13;;
45368;SDS011;51342;55.250;37.668;2022-11-20T03:08:11;20.87;;;10.27;;
45368;SDS011;51342;55.250;37.668;2022-11-20T03:10:44;18.57;;;11.03;;
45368;SDS011;51342;55.250;37.668;2022-11-20T03:13:15;17.20;;;9.37;;
45368;SDS011;51342;55.250;37.668;2022-11-20T03:15:46;18.17;;;10.73;;
45368;SDS011;51342;55.250;37.668;2022-11-20T03:18:18;17.57;;;9.97;;
45368;SDS011;51342;55.250;37.668;2022-11-20T03:20:49;18.80;;;10.33;;
45368;SDS011;51342;55.250;37.668;2022-11-20T03:23:20;22.60;;;11.10;;
45368;SDS011;51342;55.250;37.668;2022-11-20T03:25:52;17.57;;;9.73;;
45368;SDS011;51342;55.250;37.668;2022-11-20T03:28:23;17.83;;;10.20;;
45368;SDS011;51342;55.250;37.668;2022-11-20T03:30:55;17.50;;;10.20;;
45368;SDS011;51342;55.250;37.668;2022-11-20T03:33:27;20.30;;;11.10;;
45368;SDS011;51342;55.250;37.668;2022-11-20T03:36:03;20.00;;;11.37;;
45368;SDS011;51342;55.250;37.668;2022-11-20T03:38:36;16.92;;;10.85;;
45368;SDS011;51342;55.250;37.668;2022-11-20T03:41:08;18.57;;;11.27;;
45368;SDS011;51342;55.250;37.668;2022-11-20T03:46:20;17.30;;;9.47;;
45368;SDS011;51342;55.250;37.668;2022-11-20T03:48:52;17.20;;;9.80;;
45368;SDS011;51342;55.250;37.668;2022-11-20T03:53:59;16.73;;;9.87;;
45368;SDS011;51342;55.250;37.668;2022-11-20T03:56:33;18.53;;;11.20;;
45368;SDS011;51342;55.250;37.668;2022-11-20T03:59:06;16.87;;;10.10;;
45368;SDS011;51342;55.250;37.668;2022-11-20T04:01:40;19.20;;;11.23;;
45368;SDS011;51342;55.250;37.668;2022-11-20T04:04:12;21.57;;;10.83;;
45368;SDS011;51342;55.250;37.668;2022-11-20T04:06:43;17.40;;;10.63;;
45368;SDS011;51342;55.250;37.668;2022-11-20T04:09:15;22.47;;;11.47;;
45368;SDS011;51342;55.250;37.668;2022-11-20T04:11:46;19.27;;;10.60;;
45368;SDS011;51342;55.250;37.668;2022-11-20T04:14:18;21.63;;;11.23;;
45368;SDS011;51342;55.250;37.668;2022-11-20T04:16:49;20.23;;;11.10;;
45368;SDS011;51342;55.250;37.668;2022-11-20T04:19:20;22.07;;;11.43;;
45368;SDS011;51342;55.250;37.668;2022-11-20T04:21:52;21.83;;;11.33;;
45368;SDS011;51342;55.250;37.668;2022-11-20T04:24:23;20.10;;;11.17;;
45368;SDS011;51342;55.250;37.668;2022-11-20T04:26:54;17.40;;;10.30;;
45368;SDS011;51342;55.250;37.668;2022-11-20T04:29:26;20.60;;;11.63;;
45368;SDS011;51342;55.250;37.668;2022-11-20T04:31:57;21.03;;;11.33;;
45368;SDS011;51342;55.250;37.668;2022-11-20T04:34:28;21.70;;;11.03;;
45368;SDS011;51342;55.250;37.668;2022-11-20T04:37:00;18.83;;;11.60;;
45368;SDS011;51342;55.250;37.668;2022-11-20T04:39:32;19.27;;;10.93;;
45368;SDS011;51342;55.250;37.668;2022-11-20T04:42:03;20.93;;;11.37;;
45368;SDS011;51342;55.250;37.668;2022-11-20T04:44:53;19.03;;;11.00;;
45368;SDS011;51342;55.250;37.668;2022-11-20T04:47:25;20.17;;;11.20;;
45368;SDS011;51342;55.250;37.668;2022-11-20T04:49:56;20.23;;;11.27;;
45368;SDS011;51342;55.250;37.668;2022-11-20T04:52:28;19.83;;;11.30;;
45368;SDS011;51342;55.250;37.668;2022-11-20T04:54:59;19.93;;;11.37;;
45368;SDS011;51342;55.250;37.668;2022-11-20T04:57:30;15.87;;;10.27;;
45368;SDS011;51342;55.250;37.668;2022-11-20T05:00:02;18.23;;;10.90;;
45368;SDS011;51342;55.250;37.668;2022-11-20T05:02:34;17.53;;;9.53;;
45368;SDS011;51342;55.250;37.668;2022-11-20T05:05:06;17.33;;;10.37;;
45368;SDS011;51342;55.250;37.668;2022-11-20T05:07:37;17.57;;;10.17;;
45368;SDS011;51342;55.250;37.668;2022-11-20T05:10:09;18.27;;;10.80;;
45368;SDS011;51342;55.250;37.668;2022-11-20T05:12:40;19.80;;;11.33;;
45368;SDS011;51342;55.250;37.668;2022-11-20T05:15:12;17.67;;;10.20;;
45368;SDS011;51342;55.250;37.668;2022-11-20T05:17:50;17.33;;;10.23;;
45368;SDS011;51342;55.250;37.668;2022-11-20T05:20:22;17.63;;;10.30;;
45368;SDS011;51342;55.250;37.668;2022-11-20T05:22:56;16.17;;;9.53;;
45368;SDS011;51342;55.250;37.668;2022-11-20T05:25:28;16.70;;;9.57;;
45368;SDS011;51342;55.250;37.668;2022-11-20T05:27:59;16.70;;;10.23;;
45368;SDS011;51342;55.250;37.668;2022-11-20T05:30:30;17.67;;;10.67;;
45368;SDS011;51342;55.250;37.668;2022-11-20T05:33:02;16.57;;;10.07;;
45368;SDS011;51342;55.250;37.668;2022-11-20T05:35:33;17.93;;;9.57;;
45368;SDS011;51342;55.250;37.668;2022-11-20T05:38:05;17.97;;;10.30;;
45368;SDS011;51342;55.250;37.668;2022-11-20T05:40:36;18.03;;;10.10;;
45368;SDS011;51342;55.250;37.668;2022-11-20T05:43:08;17.23;;;10.13;;
45368;SDS011;51342;55.250;37.668;2022-11-20T05:45:39;16.50;;;9.70;;
45368;SDS011;51342;55.250;37.668;2022-11-20T05:48:10;19.70;;;10.40;;
45368;SDS011;51342;55.250;37.668;2022-11-20T05:50:42;17.10;;;9.57;;
45368;SDS011;51342;55.250;37.668;2022-11-20T05:53:13;17.33;;;10.33;;
45368;SDS011;51342;55.250;37.668;2022-11-20T05:55:45;15.80;;;10.40;;
45368;SDS011;51342;55.250;37.668;2022-11-20T05:58:16;18.50;;;10.87;;
45368;SDS011;51342;55.250;37.668;2022-11-20T06:00:47;17.97;;;10.50;;
45368;SDS011;51342;55.250;37.668;2022-11-20T06:03:19;14.73;;;9.33;;
45368;SDS011;51342;55.250;37.668;2022-11-20T06:05:50;19.63;;;10.13;;
45368;SDS011;51342;55.250;37.668;2022-11-20T06:08:21;19.27;;;10.27;;
45368;SDS011;51342;55.250;37.668;2022-11-20T06:10:53;16.20;;;10.27;;
45368;SDS011;51342;55.250;37.668;2022-11-20T06:13:24;17.37;;;10.00;;
45368;SDS011;51342;55.250;37.668;2022-11-20T06:15:56;19.57;;;11.03;;
45368;SDS011;51342;55.250;37.668;2022-11-20T06:18:27;18.43;;;10.87;;
45368;SDS011;51342;55.250;37.668;2022-11-20T06:21:02;19.20;;;11.07;;
45368;SDS011;51342;55.250;37.668;2022-11-20T06:23:36;21.60;;;11.47;;
45368;SDS011;51342;55.250;37.668;2022-11-20T06:26:09;19.40;;;11.83;;
45368;SDS011;51342;55.250;37.668;2022-11-20T06:28:42;22.53;;;11.97;;
45368;SDS011;51342;55.250;37.668;2022-11-20T06:31:14;21.23;;;12.33;;
45368;SDS011;51342;55.250;37.668;2022-11-20T06:33:48;22.43;;;11.93;;
45368;SDS011;51342;55.250;37.668;2022-11-20T06:36:21;22.00;;;11.30;;
45368;SDS011;51342;55.250;37.668;2022-11-20T06:38:53;20.40;;;12.20;;
45368;SDS011;51342;55.250;37.668;2022-11-20T06:41:25;22.80;;;12.10;;
45368;SDS011;51342;55.250;37.668;2022-11-20T06:43:59;18.30;;;11.00;;
45368;SDS011;51342;55.250;37.668;2022-11-20T06:46:31;23.17;;;13.13;;
45368;SDS011;51342;55.250;37.668;2022-11-20T06:49:02;20.73;;;11.80;;
45368;SDS011;51342;55.250;37.668;2022-11-20T06:51:34;21.87;;;11.20;;
45368;SDS011;51342;55.250;37.668;2022-11-20T06:54:05;20.73;;;11.93;;
45368;SDS011;51342;55.250;37.668;2022-11-20T06:56:37;21.77;;;12.83;;
45368;SDS011;51342;55.250;37.668;2022-11-20T06:59:08;21.00;;;11.80;;
45368;SDS011;51342;55.250;37.668;2022-11-20T07:01:39;22.80;;;13.07;;
45368;SDS011;51342;55.250;37.668;2022-11-20T07:04:11;21.17;;;12.23;;
45368;SDS011;51342;55.250;37.668;2022-11-20T07:06:42;20.83;;;12.47;;
45368;SDS011;51342;55.250;37.668;2022-11-20T07:09:14;20.60;;;11.17;;
45368;SDS011;51342;55.250;37.668;2022-11-20T07:11:45;21.50;;;12.67;;
45368;SDS011;51342;55.250;37.668;2022-11-20T07:14:17;22.87;;;12.73;;
45368;SDS011;51342;55.250;37.668;2022-11-20T07:16:48;20.27;;;12.13;;
45368;SDS011;51342;55.250;37.668;2022-11-20T07:19:19;24.30;;;13.20;;
45368;SDS011;51342;55.250;37.668;2022-11-20T07:21:51;18.53;;;11.43;;
45368;SDS011;51342;55.250;37.668;2022-11-20T07:24:22;23.73;;;12.20;;
45368;SDS011;51342;55.250;37.668;2022-11-20T07:26:54;22.97;;;12.87;;
45368;SDS011;51342;55.250;37.668;2022-11-20T07:29:25;24.07;;;12.87;;
45368;SDS011;51342;55.250;37.668;2022-11-20T07:31:56;21.67;;;11.70;;
45368;SDS011;51342;55.250;37.668;2022-11-20T07:34:34;22.73;;;13.20;;
45368;SDS011;51342;55.250;37.668;2022-11-20T07:37:16;19.67;;;11.27;;
45368;SDS011;51342;55.250;37.668;2022-11-20T07:39:51;20.70;;;12.63;;
45368;SDS011;51342;55.250;37.668;2022-11-20T07:42:37;20.83;;;11.00;;
45368;SDS011;51342;55.250;37.668;2022-11-20T07:45:09;23.83;;;12.27;;
45368;SDS011;51342;55.250;37.668;2022-11-20T07:47:40;23.33;;;12.17;;
45368;SDS011;51342;55.250;37.668;2022-11-20T07:50:19;21.47;;;11.87;;
45368;SDS011;51342;55.250;37.668;2022-11-20T07:52:51;21.63;;;12.37;;
45368;SDS011;51342;55.250;37.668;2022-11-20T07:55:23;19.80;;;11.17;;
45368;SDS011;51342;55.250;37.668;2022-11-20T07:57:55;20.53;;;11.20;;
45368;SDS011;51342;55.250;37.668;2022-11-20T08:00:27;21.90;;;12.23;;
45368;SDS011;51342;55.250;37.668;2022-11-20T08:02:59;20.97;;;12.17;;
45368;SDS011;51342;55.250;37.668;2022-11-20T08:05:33;20.07;;;12.50;;
45368;SDS011;51342;55.250;37.668;2022-11-20T08:08:04;20.77;;;11.50;;
45368;SDS011;51342;55.250;37.668;2022-11-20T08:10:37;20.67;;;12.33;;
45368;SDS011;51342;55.250;37.668;2022-11-20T08:13:09;19.77;;;11.33;;
45368;SDS011;51342;55.250;37.668;2022-11-20T08:15:59;21.00;;;11.67;;
45368;SDS011;51342;55.250;37.668;2022-11-20T08:18:30;21.50;;;11.10;;
45368;SDS011;51342;55.250;37.668;2022-11-20T08:21:13;19.73;;;11.10;;
45368;SDS011;51342;55.250;37.668;2022-11-20T08:23:44;20.67;;;11.67;;
45368;SDS011;51342;55.250;37.668;2022-11-20T08:26:18;18.13;;;10.13;;
45368;SDS011;51342;55.250;37.668;2022-11-20T08:28:55;20.13;;;11.30;;
45368;SDS011;51342;55.250;37.668;2022-11-20T08:31:27;18.50;;;11.20;;
45368;SDS011;51342;55.250;37.668;2022-11-20T08:33:59;19.57;;;11.50;;
45368;SDS011;51342;55.250;37.668;2022-11-20T08:36:32;19.83;;;11.00;;
45368;SDS011;51342;55.250;37.668;2022-11-20T08:39:10;16.97;;;9.57;;
45368;SDS011;51342;55.250;37.668;2022-11-20T08:41:46;22.47;;;11.13;;
45368;SDS011;51342;55.250;37.668;2022-11-20T08:44:17;18.87;;;10.33;;
45368;SDS011;51342;55.250;37.668;2022-11-20T08:46:49;19.50;;;10.43;;
45368;SDS011;51342;55.250;37.668;2022-11-20T08:49:20;23.83;;;11.07;;
45368;SDS011;51342;55.250;37.668;2022-11-20T08:51:53;18.13;;;10.00;;
45368;SDS011;51342;55.250;37.668;2022-11-20T08:54:25;20.60;;;10.73;;
45368;SDS011;51342;55.250;37.668;2022-11-20T08:56:57;19.60;;;10.13;;
45368;SDS011;51342;55.250;37.668;2022-11-20T08:59:28;17.13;;;10.07;;
45368;SDS011;51342;55.250;37.668;2022-11-20T09:02:01;21.07;;;10.23;;
45368;SDS011;51342;55.250;37.668;2022-11-20T09:04:33;22.33;;;11.33;;
45368;SDS011;51342;55.250;37.668;2022-11-20T09:07:04;20.27;;;11.20;;
45368;SDS011;51342;55.250;37.668;2022-11-20T09:09:35;21.53;;;11.23;;
45368;SDS011;51342;55.250;37.668;2022-11-20T09:12:07;23.03;;;10.83;;
45368;SDS011;51342;55.250;37.668;2022-11-20T09:14:38;18.93;;;10.90;;
45368;SDS011;51342;55.250;37.668;2022-11-20T09:17:10;19.53;;;10.30;;
45368;SDS011;51342;55.250;37.668;2022-11-20T09:19:44;21.80;;;10.83;;
45368;SDS011;51342;55.250;37.668;2022-11-20T09:22:15;21.20;;;11.53;;
45368;SDS011;51342;55.250;37.668;2022-11-20T09:24:47;20.43;;;11.23;;
45368;SDS011;51342;55.250;37.668;2022-11-20T09:27:18;22.13;;;10.50;;
45368;SDS011;51342;55.250;37.668;2022-11-20T09:29:53;17.87;;;10.17;;
45368;SDS011;51342;55.250;37.668;2022-11-20T09:32:24;20.70;;;10.90;;
45368;SDS011;51342;55.250;37.668;2022-11-20T09:34:55;16.43;;;9.00;;
45368;SDS011;51342;55.250;37.668;2022-11-20T09:37:27;17.53;;;9.67;;
45368;SDS011;51342;55.250;37.668;2022-11-20T09:39:58;16.57;;;9.60;;
45368;SDS011;51342;55.250;37.668;2022-11-20T09:45:59;19.43;;;10.63;;
45368;SDS011;51342;55.250;37.668;2022-11-20T09:51:36;18.97;;;9.67;;
45368;SDS011;51342;55.250;37.668;2022-11-20T09:54:22;15.90;;;9.20;;
45368;SDS011;51342;55.250;37.668;2022-11-20T09:57:00;16.45;;;9.73;;
45368;SDS011;51342;55.250;37.668;2022-11-20T09:59:40;16.07;;;9.80;;
45368;SDS011;51342;55.250;37.668;2022-11-20T10:05:06;16.23;;;8.70;;
45368;SDS011;51342;55.250;37.668;2022-11-20T10:10:34;14.30;;;7.83;;
45368;SDS011;51342;55.250;37.668;2022-11-20T10:16:08;12.17;;;8.00;;
45368;SDS011;51342;55.250;37.668;2022-11-20T10:19:29;13.37;;;8.80;;
45368;SDS011;51342;55.250;37.668;2022-11-20T10:27:42;13.63;;;8.77;;
45368;SDS011;51342;55.250;37.668;2022-11-20T10:30:27;16.97;;;8.97;;
45368;SDS011;51342;55.250;37.668;2022-11-20T10:33:03;14.40;;;8.07;;
45368;SDS011;51342;55.250;37.668;2022-11-20T10:36:05;14.60;;;9.10;;
45368;SDS011;51342;55.250;37.668;2022-11-20T10:38:56;15.37;;;8.13;;
45368;SDS011;51342;55.250;37.668;2022-11-20T10:41:38;14.03;;;8.40;;
45368;SDS011;51342;55.250;37.668;2022-11-20T10:44:15;14.77;;;8.50;;
45368;SDS011;51342;55.250;37.668;2022-11-20T10:47:11;16.70;;;9.33;;
45368;SDS011;51342;55.250;37.668;2022-11-20T10:49:46;14.80;;;8.53;;
45368;SDS011;51342;55.250;37.668;2022-11-20T10:55:32;12.70;;;8.27;;
45368;SDS011;51342;55.250;37.668;2022-11-20T10:58:38;13.20;;;8.30;;
45368;SDS011;51342;55.250;37.668;2022-11-20T11:01:27;14.93;;;9.03;;
45368;SDS011;51342;55.250;37.668;2022-11-20T11:03:58;15.00;;;9.03;;
45368;SDS011;51342;55.250;37.668;2022-11-20T11:06:42;16.13;;;9.43;;
45368;SDS011;51342;55.250;37.668;2022-11-20T11:12:06;14.03;;;7.73;;
45368;SDS011;51342;55.250;37.668;2022-11-20T11:14:46;16.23;;;9.10;;
45368;SDS011;51342;55.250;37.668;2022-11-20T11:17:32;15.50;;;9.30;;
45368;SDS011;51342;55.250;37.668;2022-11-20T11:20:11;14.97;;;9.77;;
45368;SDS011;51342;55.250;37.668;2022-11-20T11:22:51;14.40;;;8.50;;
45368;SDS011;51342;55.250;37.668;2022-11-20T11:25:33;14.77;;;9.23;;
45368;SDS011;51342;55.250;37.668;2022-11-20T11:30:49;14.13;;;9.17;;
45368;SDS011;51342;55.250;37.668;2022-11-20T11:33:22;14.33;;;8.77;;
45368;SDS011;51342;55.250;37.668;2022-11-20T11:36:01;16.20;;;9.37;;
45368;SDS011;51342;55.250;37.668;2022-11-20T11:38:36;18.67;;;10.27;;
45368;SDS011;51342;55.250;37.668;2022-11-20T11:41:20;18.90;;;10.10;;
45368;SDS011;51342;55.250;37.668;2022-11-20T11:43:55;15.63;;;9.53;;
45368;SDS011;51342;55.250;37.668;2022-11-20T11:47:11;16.63;;;9.70;;
45368;SDS011;51342;55.250;37.668;2022-11-20T11:50:00;16.40;;;9.37;;
45368;SDS011;51342;55.250;37.668;2022-11-20T11:55:14;16.87;;;9.57;;
45368;SDS011;51342;55.250;37.668;2022-11-20T11:57:52;16.85;;;9.35;;
45368;SDS011;51342;55.250;37.668;2022-11-20T12:00:41;16.40;;;10.00;;
45368;SDS011;51342;55.250;37.668;2022-11-20T12:03:39;18.07;;;10.17;;
45368;SDS011;51342;55.250;37.668;2022-11-20T12:06:14;16.43;;;9.43;;
45368;SDS011;51342;55.250;37.668;2022-11-20T12:08:53;13.93;;;9.10;;
45368;SDS011;51342;55.250;37.668;2022-11-20T12:14:34;16.70;;;8.93;;
45368;SDS011;51342;55.250;37.668;2022-11-20T12:17:11;16.40;;;9.23;;
45368;SDS011;51342;55.250;37.668;2022-11-20T12:19:44;15.20;;;8.75;;
45368;SDS011;51342;55.250;37.668;2022-11-20T12:22:28;14.83;;;8.70;;
45368;SDS011;51342;55.250;37.668;2022-11-20T12:28:06;13.53;;;8.97;;
45368;SDS011;51342;55.250;37.668;2022-11-20T12:31:04;14.97;;;8.77;;
45368;SDS011;51342;55.250;37.668;2022-11-20T12:34:03;14.73;;;8.73;;
45368;SDS011;51342;55.250;37.668;2022-11-20T12:40:02;16.57;;;8.70;;
45368;SDS011;51342;55.250;37.668;2022-11-20T12:54:44;15.73;;;9.13;;
45368;SDS011;51342;55.250;37.668;2022-11-20T13:04:08;15.90;;;9.07;;
45368;SDS011;51342;55.250;37.668;2022-11-20T13:07:01;15.17;;;8.40;;
45368;SDS011;51342;55.250;37.668;2022-11-20T13:09:36;16.57;;;9.73;;
45368;SDS011;51342;55.250;37.668;2022-11-20T13:15:04;15.43;;;9.17;;
45368;SDS011;51342;55.250;37.668;2022-11-20T13:18:22;15.40;;;9.13;;
45368;SDS011;51342;55.250;37.668;2022-11-20T13:20:31;15.57;;;8.70;;
45368;SDS011;51342;55.250;37.668;2022-11-20T13:23:05;16.53;;;9.13;;
45368;SDS011;51342;55.250;37.668;2022-11-20T13:25:38;18.23;;;9.90;;
45368;SDS011;51342;55.250;37.668;2022-11-20T13:30:49;17.97;;;9.40;;
45368;SDS011;51342;55.250;37.668;2022-11-20T13:33:23;16.67;;;9.17;;
45368;SDS011;51342;55.250;37.668;2022-11-20T13:36:00;16.65;;;9.75;;
45368;SDS011;51342;55.250;37.668;2022-11-20T13:38:46;15.43;;;8.67;;
45368;SDS011;51342;55.250;37.668;2022-11-20T13:41:26;16.27;;;8.83;;
45368;SDS011;51342;55.250;37.668;2022-11-20T13:46:44;17.63;;;9.63;;
45368;SDS011;51342;55.250;37.668;2022-11-20T13:55:47;15.83;;;8.67;;
45368;SDS011;51342;55.250;37.668;2022-11-20T13:59:02;14.17;;;8.30;;
45368;SDS011;51342;55.250;37.668;2022-11-20T14:01:29;15.87;;;9.40;;
45368;SDS011;51342;55.250;37.668;2022-11-20T14:04:08;14.90;;;8.40;;
45368;SDS011;51342;55.250;37.668;2022-11-20T14:06:45;17.10;;;9.90;;
45368;SDS011;51342;55.250;37.668;2022-11-20T14:09:29;16.20;;;9.33;;
45368;SDS011;51342;55.250;37.668;2022-11-20T14:12:02;17.13;;;9.80;;
45368;SDS011;51342;55.250;37.668;2022-11-20T14:14:35;17.53;;;10.37;;
45368;SDS011;51342;55.250;37.668;2022-11-20T14:17:08;18.00;;;10.30;;
45368;SDS011;51342;55.250;37.668;2022-11-20T14:19:50;20.07;;;11.17;;
45368;SDS011;51342;55.250;37.668;2022-11-20T14:22:24;16.80;;;10.03;;
45368;SDS011;51342;55.250;37.668;2022-11-20T14:27:37;17.67;;;9.67;;
45368;SDS011;51342;55.250;37.668;2022-11-20T14:30:13;17.20;;;10.17;;
45368;SDS011;51342;55.250;37.668;2022-11-20T14:32:47;19.27;;;11.18;;
45368;SDS011;51342;55.250;37.668;2022-11-20T14:35:24;16.47;;;10.30;;
45368;SDS011;51342;55.250;37.668;2022-11-20T14:37:57;18.90;;;10.30;;
45368;SDS011;51342;55.250;37.668;2022-11-20T14:40:33;15.20;;;8.63;;
45368;SDS011;51342;55.250;37.668;2022-11-20T14:43:22;18.03;;;9.87;;
45368;SDS011;51342;55.250;37.668;2022-11-20T14:46:07;17.60;;;9.82;;
45368;SDS011;51342;55.250;37.668;2022-11-20T14:48:41;15.50;;;9.97;;
45368;SDS011;51342;55.250;37.668;2022-11-20T14:51:30;18.70;;;10.23;;
45368;SDS011;51342;55.250;37.668;2022-11-20T14:54:08;19.70;;;10.17;;
45368;SDS011;51342;55.250;37.668;2022-11-20T14:56:41;16.92;;;10.48;;
45368;SDS011;51342;55.250;37.668;2022-11-20T14:59:27;17.57;;;9.37;;
45368;SDS011;51342;55.250;37.668;2022-11-20T15:02:05;15.85;;;9.57;;
45368;SDS011;51342;55.250;37.668;2022-11-20T15:04:50;16.63;;;9.03;;
45368;SDS011;51342;55.250;37.668;2022-11-20T15:07:29;17.63;;;10.37;;
45368;SDS011;51342;55.250;37.668;2022-11-20T15:10:08;15.90;;;9.30;;
45368;SDS011;51342;55.250;37.668;2022-11-20T15:15:28;14.50;;;8.33;;
45368;SDS011;51342;55.250;37.668;2022-11-20T15:18:09;17.00;;;9.77;;
45368;SDS011;51342;55.250;37.668;2022-11-20T15:20:46;16.40;;;9.30;;
45368;SDS011;51342;55.250;37.668;2022-11-20T15:23:18;18.47;;;10.00;;
45368;SDS011;51342;55.250;37.668;2022-11-20T15:25:50;16.40;;;10.07;;
45368;SDS011;51342;55.250;37.668;2022-11-20T15:28:43;21.00;;;10.47;;
45368;SDS011;51342;55.250;37.668;2022-11-20T15:31:17;17.13;;;9.93;;
45368;SDS011;51342;55.250;37.668;2022-11-20T15:33:50;16.40;;;8.80;;
45368;SDS011;51342;55.250;37.668;2022-11-20T15:36:22;17.50;;;9.63;;
45368;SDS011;51342;55.250;37.668;2022-11-20T15:38:53;14.77;;;9.27;;
45368;SDS011;51342;55.250;37.668;2022-11-20T15:41:24;16.00;;;9.37;;
45368;SDS011;51342;55.250;37.668;2022-11-20T15:43:56;19.53;;;10.00;;
45368;SDS011;51342;55.250;37.668;2022-11-20T15:46:28;17.70;;;9.77;;
45368;SDS011;51342;55.250;37.668;2022-11-20T15:49:06;16.30;;;9.57;;
45368;SDS011;51342;55.250;37.668;2022-11-20T15:51:44;17.53;;;9.17;;
45368;SDS011;51342;55.250;37.668;2022-11-20T15:54:19;18.27;;;9.73;;
45368;SDS011;51342;55.250;37.668;2022-11-20T15:56:52;17.03;;;9.77;;
45368;SDS011;51342;55.250;37.668;2022-11-20T15:59:23;19.33;;;9.67;;
45368;SDS011;51342;55.250;37.668;2022-11-20T16:01:55;20.47;;;9.73;;
45368;SDS011;51342;55.250;37.668;2022-11-20T16:04:26;19.97;;;9.87;;
45368;SDS011;51342;55.250;37.668;2022-11-20T16:06:58;17.23;;;10.20;;
45368;SDS011;51342;55.250;37.668;2022-11-20T16:09:29;18.47;;;10.40;;
45368;SDS011;51342;55.250;37.668;2022-11-20T16:12:01;18.50;;;9.40;;
45368;SDS011;51342;55.250;37.668;2022-11-20T16:14:33;16.40;;;9.50;;
45368;SDS011;51342;55.250;37.668;2022-11-20T16:17:23;18.97;;;10.23;;
45368;SDS011;51342;55.250;37.668;2022-11-20T16:20:13;18.47;;;9.93;;
45368;SDS011;51342;55.250;37.668;2022-11-20T16:22:44;17.50;;;9.63;;
45368;SDS011;51342;55.250;37.668;2022-11-20T16:25:15;21.37;;;10.73;;
45368;SDS011;51342;55.250;37.668;2022-11-20T16:27:47;20.17;;;10.43;;